Time;durP1;ratioP1;P1;durP2;ratioP2;P2;SDS_P1;SDS_P2;PMS_P1;PMS_P2;Temp;Humidity;BMP_temperature;BMP_pressure;BME280_temperature;BME280_humidity;BME280_pressure;Samples;Min_cycle;Max_cycle;Signal;HPM_P1;HPM_P2
2022/08/11 00:00:05;;;;;;;4.78;3.30;;;;;;;21.07;40.27;101643.84;846850;23;1377;-88
2022/08/11 00:00:44;;;;;;;4.30;3.30;;;;;;;21.00;40.47;101631.47;847323;23;1262;-88
2022/08/11 00:01:09;;;;;;;4.63;3.40;;;;;;;21.02;40.28;101639.47;846653;23;1435;-87
2022/08/11 00:01:30;;;;;;;5.00;3.50;;;;;;;21.00;40.44;101636.78;843283;23;1314;-88
2022/08/11 00:01:54;;;;;;;4.45;3.40;;;;;;;20.97;40.60;101636.81;847739;23;1330;-87
2022/08/11 00:02:22;;;;;;;4.00;3.55;;;;;;;20.95;40.42;101633.25;847331;23;1206;-87
2022/08/11 00:02:55;;;;;;;5.13;3.60;;;;;;;20.97;40.39;101639.47;847613;23;1204;-87
2022/08/11 00:03:19;;;;;;;6.93;3.42;;;;;;;20.90;40.55;101635.06;837159;23;1258;-87
2022/08/11 00:03:46;;;;;;;6.13;3.30;;;;;;;20.92;40.62;101639.47;839404;23;1903;-87
2022/08/11 00:04:14;;;;;;;6.53;3.30;;;;;;;20.86;40.61;101634.16;846930;23;1231;-87
2022/08/11 00:04:36;;;;;;;6.03;3.55;;;;;;;20.89;40.57;101649.22;839661;23;1304;-87
2022/08/11 00:05:05;;;;;;;6.20;3.70;;;;;;;20.86;40.72;101638.56;843389;23;1365;-87
2022/08/11 00:05:26;;;;;;;5.70;3.40;;;;;;;20.86;40.81;101643.88;843629;23;1296;-87
2022/08/11 00:05:51;;;;;;;4.18;3.10;;;;;;;20.85;40.72;101648.31;843791;23;1231;-87
2022/08/11 00:06:14;;;;;;;4.03;3.10;;;;;;;20.84;40.76;101635.06;846705;23;1336;-87
2022/08/11 00:06:36;;;;;;;3.97;3.20;;;;;;;20.79;40.68;101638.56;843243;23;1387;-88
2022/08/11 00:07:02;;;;;;;3.60;3.30;;;;;;;20.83;40.78;101644.75;846840;23;1362;-88
2022/08/11 00:07:24;;;;;;;4.30;3.47;;;;;;;20.81;40.71;101641.25;847802;23;1160;-87
2022/08/11 00:07:56;;;;;;;4.10;3.30;;;;;;;20.79;40.80;101643.88;851550;23;1449;-88
2022/08/11 00:08:26;;;;;;;4.18;3.25;;;;;;;20.82;40.61;101649.22;847486;23;1321;-87
2022/08/11 00:08:49;;;;;;;5.60;3.92;;;;;;;20.82;40.87;101643.91;847699;23;1188;-87
2022/08/11 00:09:15;;;;;;;5.05;3.80;;;;;;;20.78;40.77;101639.47;842935;23;1049;-87
2022/08/11 00:09:38;;;;;;;4.65;3.60;;;;;;;20.76;40.70;101637.69;842453;23;1320;-87
2022/08/11 00:10:00;;;;;;;4.22;3.63;;;;;;;20.77;40.74;101639.50;842705;23;1389;-88
2022/08/11 00:10:29;;;;;;;3.92;3.53;;;;;;;20.77;40.86;101637.72;847098;23;1243;-87
2022/08/11 00:10:56;;;;;;;3.95;3.60;;;;;;;20.75;40.99;101631.53;839544;23;1259;-87
2022/08/11 00:11:17;;;;;;;4.32;3.60;;;;;;;20.79;41.02;101637.72;843400;23;1253;-88
2022/08/11 00:11:48;;;;;;;5.30;3.85;;;;;;;20.76;40.76;101635.03;846908;23;1275;-87
2022/08/11 00:12:19;;;;;;;6.80;3.70;;;;;;;20.75;40.84;101631.53;842053;23;1229;-87
2022/08/11 00:12:42;;;;;;;8.95;3.55;;;;;;;20.80;40.94;101639.47;847527;23;1200;-88
2022/08/11 00:13:06;;;;;;;8.20;3.78;;;;;;;20.77;41.04;101635.06;846973;23;1377;-87
2022/08/11 00:13:48;;;;;;;4.88;3.70;;;;;;;20.78;40.97;101636.81;843501;23;1287;-87
2022/08/11 00:14:27;;;;;;;5.38;3.78;;;;;;;20.81;41.12;101638.59;841088;23;1122;-87
2022/08/11 00:14:57;;;;;;;5.95;3.80;;;;;;;20.79;40.93;101635.94;839332;23;1286;-88
2022/08/11 00:15:20;;;;;;;5.38;3.30;;;;;;;20.78;40.96;101631.50;851324;23;1395;-87
2022/08/11 00:15:44;;;;;;;4.30;3.33;;;;;;;20.82;40.94;101638.59;842860;23;1389;-87
2022/08/11 00:16:15;;;;;;;4.50;3.60;;;;;;;20.80;40.84;101635.06;834734;23;1247;-88
2022/08/11 00:16:36;;;;;;;3.83;3.40;;;;;;;20.77;40.90;101629.75;838970;23;1254;-87
2022/08/11 00:17:04;;;;;;;3.88;3.40;;;;;;;20.74;40.94;101629.75;838873;23;1361;-86
2022/08/11 00:17:28;;;;;;;4.57;3.20;;;;;;;20.78;40.95;101642.13;851600;23;1351;-87
2022/08/11 00:17:49;;;;;;;6.38;3.20;;;;;;;20.71;40.99;101629.75;846743;23;1187;-87
2022/08/11 00:18:12;;;;;;;6.70;3.30;;;;;;;20.69;40.89;101628.84;848510;23;1092;-87
2022/08/11 00:18:42;;;;;;;3.70;3.40;;;;;;;20.73;41.12;101638.59;846920;23;1385;-87
2022/08/11 00:19:03;;;;;;;4.50;3.40;;;;;;;20.67;41.13;101630.63;846667;23;1361;-88
2022/08/11 00:19:31;;;;;;;5.65;3.38;;;;;;;20.64;41.12;101633.25;842939;23;1309;-87
2022/08/11 00:20:04;;;;;;;6.15;3.42;;;;;;;20.60;41.21;101639.47;838943;23;1188;-87
2022/08/11 00:20:31;;;;;;;4.90;3.75;;;;;;;20.58;41.29;101638.59;843371;23;1405;-87
2022/08/11 00:20:58;;;;;;;5.25;4.03;;;;;;;20.52;41.50;101635.03;843391;23;1271;-88
2022/08/11 00:21:25;;;;;;;5.88;4.00;;;;;;;20.48;41.42;101627.94;855395;23;1212;-87
2022/08/11 00:21:46;;;;;;;5.50;3.90;;;;;;;20.48;41.60;101632.38;846578;23;1357;-87
2022/08/11 00:22:11;;;;;;;4.07;3.40;;;;;;;20.44;41.53;101631.50;838843;23;1261;-87
2022/08/11 00:22:33;;;;;;;4.82;3.40;;;;;;;20.48;41.79;101637.69;847743;23;1211;-87
2022/08/11 00:23:01;;;;;;;6.50;3.40;;;;;;;20.47;41.67;101639.44;844031;23;1325;-87
2022/08/11 00:23:23;;;;;;;7.88;3.85;;;;;;;20.47;41.77;101636.78;843351;23;1223;-87
2022/08/11 00:24:01;;;;;;;6.10;3.80;;;;;;;20.52;41.56;101639.44;846299;23;1906;-87
2022/08/11 00:24:23;;;;;;;5.22;3.42;;;;;;;20.53;41.68;101639.44;843467;23;1172;-88
2022/08/11 00:24:44;;;;;;;4.63;3.30;;;;;;;20.47;41.79;101634.13;851744;23;1322;-88
2022/08/11 00:25:14;;;;;;;4.35;3.30;;;;;;;20.51;41.70;101637.69;850876;23;1221;-87
2022/08/11 00:25:46;;;;;;;5.10;3.30;;;;;;;20.53;41.65;101643.88;839549;23;1277;-87
2022/08/11 00:26:07;;;;;;;5.85;3.10;;;;;;;20.47;41.71;101634.13;838391;23;1320;-87
2022/08/11 00:26:29;;;;;;;5.88;3.20;;;;;;;20.44;41.64;101628.84;855775;23;1097;-87
2022/08/11 00:26:51;;;;;;;5.50;3.30;;;;;;;20.43;41.78;101634.13;851862;23;1319;-88
2022/08/11 00:27:12;;;;;;;5.78;3.50;;;;;;;20.46;41.56;101639.47;851063;23;1203;-87
2022/08/11 00:27:35;;;;;;;4.40;3.35;;;;;;;20.48;41.61;101637.69;847489;23;1274;-87
2022/08/11 00:27:56;;;;;;;4.55;3.30;;;;;;;20.42;41.74;101633.28;847044;23;1246;-87
2022/08/11 00:28:30;;;;;;;4.28;3.15;;;;;;;20.42;41.62;101638.56;847707;23;1230;-87
2022/08/11 00:28:52;;;;;;;3.88;3.47;;;;;;;20.43;41.57;101640.34;851668;23;1223;-87
2022/08/11 00:29:13;;;;;;;4.03;3.70;;;;;;;20.43;41.66;101642.09;843209;23;1350;-87
2022/08/11 00:29:34;;;;;;;4.43;3.72;;;;;;;20.42;41.54;101643.88;843018;23;1220;-88
2022/08/11 00:29:57;;;;;;;5.47;4.43;;;;;;;20.40;41.78;101645.63;842938;23;1375;-87
2022/08/11 00:30:17;;;;;;;5.30;4.30;;;;;;;20.42;41.63;101641.22;839621;23;1283;-87
2022/08/11 00:30:39;;;;;;;5.43;4.15;;;;;;;20.41;41.64;101640.31;839843;23;1332;-87
2022/08/11 00:31:10;;;;;;;4.75;3.60;;;;;;;20.41;41.86;101639.47;851246;23;1365;-87
2022/08/11 00:31:34;;;;;;;4.63;3.50;;;;;;;20.38;41.94;101637.69;844193;23;1211;-87
2022/08/11 00:31:56;;;;;;;4.85;3.60;;;;;;;20.44;42.11;101641.22;847873;23;1273;-88
2022/08/11 00:32:17;;;;;;;5.63;3.75;;;;;;;20.43;41.96;101640.34;839856;23;1378;-88
2022/08/11 00:32:41;;;;;;;4.85;3.42;;;;;;;20.37;41.87;101635.03;852108;23;1265;-87
2022/08/11 00:33:03;;;;;;;5.45;3.30;;;;;;;20.40;41.72;101637.66;852184;23;1371;-87
2022/08/11 00:33:36;;;;;;;3.95;3.00;;;;;;;20.43;41.84;101644.75;839294;23;1253;-87
2022/08/11 00:33:59;;;;;;;5.18;3.10;;;;;;;20.36;41.81;101636.78;848068;23;1357;-87
2022/08/11 00:34:24;;;;;;;4.72;3.13;;;;;;;20.42;41.85;101643.88;848293;23;1361;-87
2022/08/11 00:34:46;;;;;;;5.65;3.60;;;;;;;20.35;42.19;101642.09;843284;23;1450;-87
2022/08/11 00:35:11;;;;;;;4.43;3.75;;;;;;;20.37;42.01;101645.63;845478;23;1205;-87
2022/08/11 00:35:42;;;;;;;4.30;3.70;;;;;;;20.34;42.00;101643.84;852518;23;1526;-87
2022/08/11 00:36:06;;;;;;;4.80;3.50;;;;;;;20.33;42.20;101638.53;847682;23;1294;-87
2022/08/11 00:36:39;;;;;;;5.90;3.67;;;;;;;20.32;42.05;101642.97;852393;23;1349;-87
2022/08/11 00:37:06;;;;;;;6.53;3.55;;;;;;;20.34;42.11;101646.50;835762;23;1239;-87
2022/08/11 00:37:28;;;;;;;5.72;3.40;;;;;;;20.32;42.29;101642.09;847735;23;1391;-87
2022/08/11 00:37:53;;;;;;;5.22;3.50;;;;;;;20.35;42.27;101648.28;852439;23;1245;-87
2022/08/11 00:38:16;;;;;;;3.90;3.25;;;;;;;20.32;42.24;101647.38;847930;23;1357;-87
2022/08/11 00:38:39;;;;;;;3.95;3.50;;;;;;;20.35;42.25;101647.41;848145;23;1193;-87
2022/08/11 00:39:04;;;;;;;6.38;3.67;;;;;;;20.30;42.08;101634.16;850584;23;1248;-88
2022/08/11 00:39:26;;;;;;;6.38;3.50;;;;;;;20.30;42.38;101643.84;847865;23;1277;-88
2022/08/11 00:39:54;;;;;;;6.35;3.60;;;;;;;20.29;42.53;101650.94;847672;23;1371;-87
2022/08/11 00:40:35;;;;;;;3.78;3.38;;;;;;;20.26;42.58;101638.56;839548;23;1309;-88
2022/08/11 00:40:56;;;;;;;4.80;3.30;;;;;;;20.30;42.48;101649.16;838869;23;1353;-88
2022/08/11 00:41:31;;;;;;;5.80;3.40;;;;;;;20.26;42.27;101646.50;839909;23;1200;-87
2022/08/11 00:41:58;;;;;;;4.60;3.20;;;;;;;20.27;42.44;101645.63;839346;23;1327;-87
2022/08/11 00:42:52;;;;;;;4.93;3.10;;;;;;;20.26;42.48;101638.56;840938;23;965;-87
2022/08/11 00:43:27;;;;;;;5.93;3.80;;;;;;;20.32;42.50;101647.38;847484;23;1247;-87
2022/08/11 00:44:03;;;;;;;6.05;3.83;;;;;;;20.31;42.65;101646.50;851561;23;1897;-87
2022/08/11 00:45:01;;;;;;;4.97;3.60;;;;;;;20.32;42.53;101644.72;839766;23;1279;-87
2022/08/11 00:45:29;;;;;;;5.50;3.10;;;;;;;20.27;42.63;101640.31;847402;23;1345;-88
2022/08/11 00:46:18;;;;;;;4.05;3.05;;;;;;;20.28;42.44;101639.44;851927;23;1320;-88
2022/08/11 00:46:57;;;;;;;4.10;3.35;;;;;;;20.27;42.42;101647.38;835710;23;1348;-87
2022/08/11 00:48:00;;;;;;;4.43;3.40;;;;;;;20.23;42.45;101638.53;851878;23;1295;-87
2022/08/11 00:48:47;;;;;;;4.03;3.30;;;;;;;20.20;42.67;101643.84;847046;23;1433;-88
2022/08/11 00:49:29;;;;;;;4.10;3.60;;;;;;;20.21;42.55;101648.25;837163;23;1312;-87
2022/08/11 00:50:14;;;;;;;4.25;3.25;;;;;;;20.18;42.59;101645.63;855297;23;1260;-88
2022/08/11 00:50:49;;;;;;;4.70;3.20;;;;;;;20.15;42.84;101640.28;843554;23;1216;-87
2022/08/11 00:51:42;;;;;;;4.95;3.30;;;;;;;20.13;42.92;101640.31;842804;23;1449;-87
2022/08/11 00:52:21;;;;;;;4.03;3.30;;;;;;;20.10;43.00;101642.94;854685;23;1272;-87
2022/08/11 00:53:09;;;;;;;4.25;3.42;;;;;;;20.05;43.25;101638.50;847726;23;1388;-87
2022/08/11 00:53:39;;;;;;;26.60;3.60;;;;;;;20.09;42.94;101637.63;835480;23;1449;-87
2022/08/11 00:54:05;;;;;;;4.80;3.45;;;;;;;20.10;43.02;101639.41;844221;23;945;-87
2022/08/11 00:54:56;;;;;;;3.65;3.20;;;;;;;20.08;42.97;101630.56;838856;23;1200;-87
2022/08/11 00:55:35;;;;;;;4.65;3.60;;;;;;;20.12;43.02;101640.28;843076;23;1364;-87
2022/08/11 00:56:02;;;;;;;5.03;3.53;;;;;;;20.12;43.08;101643.81;850856;23;1377;-87
2022/08/11 00:57:01;;;;;;;5.15;3.47;;;;;;;20.14;43.09;101641.19;851364;23;1575;-87
2022/08/11 00:57:39;;;;;;;4.78;3.47;;;;;;;20.12;43.27;101642.94;847527;23;1204;-87
2022/08/11 00:58:18;;;;;;;5.28;3.30;;;;;;;20.10;43.23;101636.78;843659;23;1485;-87
2022/08/11 00:58:57;;;;;;;6.25;3.20;;;;;;;20.17;43.25;101637.66;850176;23;1242;-87
2022/08/11 00:59:56;;;;;;;5.15;3.25;;;;;;;20.20;43.10;101638.53;839748;23;1220;-87
2022/08/11 01:00:22;;;;;;;3.97;3.38;;;;;;;20.18;43.29;101629.72;827516;23;1265;-87
2022/08/11 01:01:08;;;;;;;4.53;3.50;;;;;;;20.17;43.08;101642.97;835558;23;1268;-87
2022/08/11 01:01:58;;;;;;;4.60;3.40;;;;;;;20.13;43.12;101637.66;834922;23;1213;-87
2022/08/11 01:03:00;;;;;;;4.15;3.35;;;;;;;20.11;43.18;101641.19;831533;23;1192;-87
2022/08/11 01:04:10;;;;;;;4.77;3.70;;;;;;;20.08;43.16;101641.16;831424;23;1246;-87
2022/08/11 01:06:48;;;;;;;5.75;3.40;;;;;;;20.07;43.29;101642.94;835927;23;1268;-87
2022/08/11 01:07:33;;;;;;;4.85;3.45;;;;;;;20.05;43.18;101634.13;852499;23;1548;-87
2022/08/11 01:08:04;;;;;;;5.30;3.70;;;;;;;20.04;43.19;101639.41;846814;23;1315;-87
2022/08/11 01:09:01;;;;;;;4.50;3.50;;;;;;;20.01;43.25;101634.97;844923;23;1318;-87
2022/08/11 01:09:43;;;;;;;3.88;3.53;;;;;;;19.98;43.37;101642.94;847242;23;1142;-87
2022/08/11 01:11:03;;;;;;;6.20;3.40;;;;;;;19.91;43.34;101636.72;847120;23;1352;-87
2022/08/11 01:11:42;;;;;;;6.30;3.35;;;;;;;19.88;43.50;101636.72;844458;23;1332;-87
2022/08/11 01:12:08;;;;;;;4.60;3.45;;;;;;;19.87;43.57;101643.72;834768;23;1397;-87
2022/08/11 01:12:58;;;;;;;4.28;3.30;;;;;;;19.87;43.37;101634.91;842691;23;1210;-87
2022/08/11 01:13:30;;;;;;;5.25;3.20;;;;;;;19.90;43.47;101637.59;843555;23;1217;-87
2022/08/11 01:13:51;;;;;;;4.05;3.50;;;;;;;19.88;43.52;101631.41;843819;23;1433;-88
2022/08/11 01:14:50;;;;;;;4.00;3.53;;;;;;;19.86;43.57;101635.78;838688;23;1224;-87
2022/08/11 01:15:32;;;;;;;4.05;3.20;;;;;;;19.83;43.51;101633.13;841864;23;1546;-88
2022/08/11 01:16:08;;;;;;;6.22;3.50;;;;;;;19.79;43.74;101636.66;848068;23;1317;-87
2022/08/11 01:17:00;;;;;;;6.45;3.75;;;;;;;19.79;43.78;101632.22;843727;23;1282;-87
2022/08/11 01:18:03;;;;;;;7.40;3.75;;;;;;;19.77;43.78;101634.00;850198;23;1449;-86
2022/08/11 01:18:49;;;;;;;4.90;3.20;;;;;;;19.75;43.84;101640.16;827288;23;1236;-88
2022/08/11 01:19:36;;;;;;;4.30;3.20;;;;;;;19.69;44.02;101636.63;834850;23;1060;-88
2022/08/11 01:20:47;;;;;;;3.85;3.00;;;;;;;19.69;44.06;101641.03;847080;23;1171;-87
2022/08/11 01:21:16;;;;;;;4.13;3.25;;;;;;;19.67;44.10;101635.72;843171;23;1329;-88
2022/08/11 01:21:59;;;;;;;4.10;3.50;;;;;;;19.65;44.13;101637.47;846795;23;1232;-87
2022/08/11 01:22:57;;;;;;;3.83;3.20;;;;;;;19.63;44.18;101639.25;855734;23;1292;-86
2022/08/11 01:23:35;;;;;;;4.38;3.17;;;;;;;19.61;44.27;101632.16;843115;23;1164;-87
2022/08/11 01:24:46;;;;;;;5.20;3.17;;;;;;;19.47;44.40;101625.03;844459;23;1925;-87
2022/08/11 01:25:34;;;;;;;6.00;3.97;;;;;;;19.45;44.65;101635.66;843900;23;1243;-87
2022/08/11 01:26:26;;;;;;;4.70;3.72;;;;;;;19.43;44.50;101640.03;848380;23;1210;-87
2022/08/11 01:26:53;;;;;;;4.93;3.45;;;;;;;19.47;44.68;101637.41;852480;23;1266;-87
2022/08/11 01:27:25;;;;;;;4.32;3.28;;;;;;;19.48;44.59;101633.88;844234;23;1170;-87
2022/08/11 01:28:11;;;;;;;4.05;3.65;;;;;;;19.44;44.74;101633.84;843893;23;1382;-87
2022/08/11 01:28:53;;;;;;;3.70;3.30;;;;;;;19.46;44.64;101628.56;848392;23;1304;-87
2022/08/11 01:29:36;;;;;;;5.25;3.60;;;;;;;19.45;44.65;101630.34;843942;23;1334;-87
2022/08/11 01:30:19;;;;;;;4.97;3.40;;;;;;;19.44;44.92;101644.44;847794;23;1469;-87
2022/08/11 01:30:58;;;;;;;4.55;3.50;;;;;;;19.45;44.45;101634.75;842978;23;1301;-87
2022/08/11 01:32:05;;;;;;;4.10;3.70;;;;;;;19.40;44.71;101637.38;843923;23;1254;-88
2022/08/11 01:32:29;;;;;;;6.55;3.88;;;;;;;19.42;44.70;101640.91;843448;23;1273;-87
2022/08/11 01:33:08;;;;;;;6.82;3.80;;;;;;;19.41;44.66;101640.88;832424;23;1328;-87
2022/08/11 01:34:16;;;;;;;3.85;3.45;;;;;;;19.39;44.68;101643.56;843354;23;1167;-88
2022/08/11 01:34:47;;;;;;;4.70;3.80;;;;;;;19.37;44.73;101645.28;849079;23;850;-88
2022/08/11 01:35:26;;;;;;;4.55;3.72;;;;;;;19.37;44.66;101640.00;852671;23;1428;-85
2022/08/11 01:36:01;;;;;;;3.88;3.30;;;;;;;19.37;44.72;101644.41;851789;23;1381;-85
2022/08/11 01:36:55;;;;;;;3.70;3.30;;;;;;;19.32;44.64;101644.41;851800;23;1369;-85
2022/08/11 01:37:43;;;;;;;6.63;3.70;;;;;;;19.32;44.70;101642.63;837978;23;1360;-85
2022/08/11 01:38:19;;;;;;;7.00;3.67;;;;;;;19.31;44.86;101648.78;847024;23;1232;-85
2022/08/11 01:39:09;;;;;;;4.65;3.60;;;;;;;19.32;44.72;101647.03;847468;23;1211;-85
2022/08/11 01:39:48;;;;;;;7.70;3.75;;;;;;;19.30;44.91;101647.03;835324;23;1365;-85
2022/08/11 01:41:00;;;;;;;4.55;3.42;;;;;;;19.30;44.91;101644.38;844479;23;1406;-85
2022/08/11 01:44:36;;;;;;;5.65;4.20;;;;;;;19.29;45.07;101647.91;840487;23;1345;-85
2022/08/11 01:44:42;;;;;;;6.78;3.60;;;;;;;19.28;45.03;101645.25;853244;23;1340;-85
2022/08/11 01:45:24;;;;;;;8.57;3.60;;;;;;;19.27;45.03;101648.75;843063;23;1283;-85
2022/08/11 01:45:45;;;;;;;6.00;3.50;;;;;;;19.26;45.09;101649.66;839661;23;1344;-85
2022/08/11 01:46:20;;;;;;;5.53;3.42;;;;;;;19.24;45.20;101654.06;842986;23;1177;-86
2022/08/11 01:47:01;;;;;;;4.70;3.38;;;;;;;19.20;45.23;101639.91;847787;23;1189;-85
2022/08/11 01:47:49;;;;;;;5.20;3.60;;;;;;;19.20;45.46;101641.66;851882;23;1381;-85
2022/08/11 01:48:37;;;;;;;6.38;3.63;;;;;;;19.18;45.33;101646.97;847086;23;1496;-86
2022/08/11 01:49:08;;;;;;;4.88;3.42;;;;;;;19.11;45.36;101637.22;843199;23;1430;-85
2022/08/11 01:50:02;;;;;;;5.55;3.40;;;;;;;19.13;45.38;101652.19;846580;23;1290;-85
2022/08/11 01:50:27;;;;;;;5.13;3.50;;;;;;;19.09;45.60;101634.56;847230;23;1382;-86
2022/08/11 01:51:21;;;;;;;5.45;3.47;;;;;;;19.16;45.36;101657.53;843920;23;1294;-84
2022/08/11 01:52:01;;;;;;;5.22;3.60;;;;;;;19.15;45.39;101649.56;844089;23;1215;-85
2022/08/11 01:52:39;;;;;;;6.00;3.50;;;;;;;19.09;45.43;101655.72;847866;23;1369;-85
2022/08/11 01:53:28;;;;;;;6.13;3.60;;;;;;;19.06;45.63;101649.53;851266;23;1148;-85
2022/08/11 01:54:08;;;;;;;5.63;3.20;;;;;;;19.05;45.61;101653.91;843546;23;1108;-85
2022/08/11 01:54:47;;;;;;;6.18;3.50;;;;;;;19.04;45.56;101653.03;851549;23;1273;-85
2022/08/11 01:55:28;;;;;;;4.68;3.47;;;;;;;18.98;45.86;101647.69;846987;23;1319;-85
2022/08/11 01:56:10;;;;;;;3.70;3.40;;;;;;;19.02;45.80;101651.22;839736;23;1234;-85
2022/08/11 01:56:52;;;;;;;4.80;3.47;;;;;;;19.02;45.78;101645.94;846990;23;1531;-86
2022/08/11 01:57:37;;;;;;;5.43;3.75;;;;;;;19.07;46.02;101651.28;850894;23;1393;-85
2022/08/11 01:59:09;;;;;;;5.68;3.70;;;;;;;19.11;45.64;101656.59;835414;23;1329;-85
2022/08/11 01:59:48;;;;;;;4.68;3.33;;;;;;;19.11;45.84;101646.03;839996;23;1235;-85
2022/08/11 02:00:14;;;;;;;5.25;3.22;;;;;;;19.07;45.89;101641.59;842583;23;1196;-85
2022/08/11 02:01:10;;;;;;;5.50;3.45;;;;;;;19.11;45.54;101656.59;843255;23;1383;-84
2022/08/11 02:01:50;;;;;;;4.32;3.47;;;;;;;19.12;45.66;101644.28;845581;23;1251;-85
2022/08/11 02:02:46;;;;;;;5.68;3.40;;;;;;;19.04;45.64;101650.41;843384;23;1343;-85
2022/08/11 02:03:15;;;;;;;7.07;4.10;;;;;;;19.03;45.68;101651.28;835173;23;1358;-85
2022/08/11 02:04:17;;;;;;;12.32;4.28;;;;;;;19.03;45.68;101647.75;854916;23;1294;-85
2022/08/11 02:04:43;;;;;;;5.72;3.60;;;;;;;19.02;45.82;101649.47;851828;23;1575;-86
2022/08/11 02:05:27;;;;;;;4.65;3.50;;;;;;;19.04;45.79;101657.44;846879;23;1350;-85
2022/08/11 02:06:53;;;;;;;6.70;3.67;;;;;;;19.04;45.71;101660.09;839791;23;1338;-86
2022/08/11 02:07:10;;;;;;;4.50;3.65;;;;;;;19.01;45.91;101654.75;836969;23;834;-85
2022/08/11 02:07:52;;;;;;;5.05;3.47;;;;;;;18.95;46.26;101652.06;840356;23;1232;-85
2022/08/11 02:08:50;;;;;;;7.05;3.78;;;;;;;18.96;46.14;101660.00;850544;23;1274;-85
2022/08/11 02:09:49;;;;;;;4.80;3.50;;;;;;;18.92;46.33;101663.50;847221;23;1194;-85
2022/08/11 02:11:32;;;;;;;4.10;3.30;;;;;;;18.84;46.61;101650.22;850017;23;1272;-85
2022/08/11 02:12:00;;;;;;;5.93;3.72;;;;;;;18.85;46.52;101653.75;843803;23;1240;-85
2022/08/11 02:12:31;;;;;;;6.40;3.80;;;;;;;18.84;46.66;101650.22;843328;23;1275;-85
2022/08/11 02:13:33;;;;;;;6.30;3.60;;;;;;;18.86;46.60;101651.13;843300;23;1376;-86
2022/08/11 02:13:59;;;;;;;4.55;3.53;;;;;;;18.79;46.61;101659.00;839185;23;1392;-85
2022/08/11 02:14:45;;;;;;;4.13;3.53;;;;;;;18.81;46.81;101658.13;847323;23;1265;-86
2022/08/11 02:15:27;;;;;;;4.55;3.50;;;;;;;18.79;46.72;101659.00;846738;23;1242;-85
2022/08/11 02:16:03;;;;;;;6.30;3.75;;;;;;;18.78;46.66;101658.09;851773;23;1249;-86
2022/08/11 02:16:56;;;;;;;6.30;3.80;;;;;;;18.76;46.84;101654.56;847743;23;1188;-85
2022/08/11 02:23:55;;;;;;;8.15;3.80;;;;;;;18.70;47.01;101658.06;851447;23;1919;-85
2022/08/11 02:24:35;;;;;;;6.68;3.60;;;;;;;18.67;47.08;101651.88;834903;23;1404;-85
2022/08/11 02:25:08;;;;;;;4.10;3.70;;;;;;;18.64;47.41;101650.94;842970;23;1207;-85
2022/08/11 02:25:35;;;;;;;5.70;4.18;;;;;;;18.64;47.29;101656.22;860035;23;1214;-84
2022/08/11 02:26:01;;;;;;;7.20;3.95;;;;;;;18.63;47.34;101656.25;847569;23;1262;-85
2022/08/11 02:26:27;;;;;;;8.55;4.18;;;;;;;18.58;47.47;101650.00;839433;23;1250;-85
2022/08/11 02:26:59;;;;;;;5.10;3.90;;;;;;;18.60;47.51;101648.25;851878;23;1467;-86
2022/08/11 02:27:24;;;;;;;5.10;3.70;;;;;;;18.58;47.62;101648.28;843584;23;1269;-85
2022/08/11 02:27:54;;;;;;;5.32;3.80;;;;;;;18.61;47.50;101648.28;843457;23;1368;-85
2022/08/11 02:28:27;;;;;;;5.30;3.90;;;;;;;18.62;47.40;101650.06;842771;23;1330;-85
2022/08/11 02:29:02;;;;;;;5.43;3.90;;;;;;;18.65;47.47;101649.19;839527;23;1330;-85
2022/08/11 02:29:47;;;;;;;4.20;3.70;;;;;;;18.61;47.60;101643.00;846793;23;1319;-85
2022/08/11 02:30:15;;;;;;;4.70;4.20;;;;;;;18.67;47.65;101657.16;846701;23;1463;-84
2022/08/11 02:33:21;;;;;;;4.70;4.00;;;;;;;18.66;47.62;101656.25;839521;23;1244;-85
2022/08/11 02:33:24;;;;;;;5.10;3.90;;;;;;;18.65;47.41;101649.19;851346;23;1236;-85
2022/08/11 02:33:49;;;;;;;5.13;3.80;;;;;;;18.60;47.46;101645.63;843641;23;1203;-86
2022/08/11 02:34:41;;;;;;;5.63;3.83;;;;;;;18.64;47.40;101650.06;842960;23;1363;-85
2022/08/11 02:35:17;;;;;;;4.10;3.70;;;;;;;18.61;47.68;101650.94;846933;23;1381;-85
2022/08/11 02:36:11;;;;;;;6.03;3.83;;;;;;;18.57;47.59;101654.41;847368;23;1297;-85
2022/08/11 02:36:42;;;;;;;5.28;3.40;;;;;;;18.55;47.63;101648.22;847216;23;1330;-85
2022/08/11 02:37:18;;;;;;;4.15;3.60;;;;;;;18.55;47.71;101652.66;843089;23;1258;-86
2022/08/11 02:37:58;;;;;;;7.22;3.95;;;;;;;18.53;47.79;101655.25;839537;23;1365;-87
2022/08/11 02:39:14;;;;;;;7.28;4.03;;;;;;;18.50;48.00;101649.94;843742;23;1314;-87
2022/08/11 02:39:43;;;;;;;4.47;3.42;;;;;;;18.44;47.88;101640.19;833913;23;1497;-85
2022/08/11 02:40:07;;;;;;;4.00;3.60;;;;;;;18.50;47.99;101644.66;838662;23;1234;-85
2022/08/11 02:41:00;;;;;;;4.80;4.10;;;;;;;18.50;47.80;101645.53;843596;23;1376;-85
2022/08/11 02:42:23;;;;;;;5.03;3.60;;;;;;;18.48;47.76;101641.09;843246;23;1265;-85
2022/08/11 02:42:43;;;;;;;5.28;4.10;;;;;;;18.45;47.85;101643.75;839470;23;1181;-85
2022/08/11 02:43:15;;;;;;;4.20;3.73;;;;;;;18.40;47.88;101643.69;837430;23;1155;-85
2022/08/11 02:43:58;;;;;;;5.22;3.70;;;;;;;18.39;47.92;101641.03;843529;23;1301;-85
2022/08/11 02:44:55;;;;;;;6.18;4.22;;;;;;;18.32;48.08;101640.97;846890;23;1249;-85
2022/08/11 02:45:18;;;;;;;7.82;4.03;;;;;;;18.33;48.07;101642.72;855337;23;1352;-85
2022/08/11 02:45:46;;;;;;;7.50;4.10;;;;;;;18.32;48.05;101643.59;851280;23;1357;-85
2022/08/11 02:46:28;;;;;;;6.15;4.05;;;;;;;18.29;48.25;101646.22;847122;23;1263;-85
2022/08/11 02:47:05;;;;;;;4.90;3.55;;;;;;;18.30;48.32;101648.00;847837;23;1325;-85
2022/08/11 02:47:41;;;;;;;4.97;3.42;;;;;;;18.27;48.57;101645.34;847443;23;1310;-85
2022/08/11 02:50:07;;;;;;;4.97;3.95;;;;;;;18.24;48.62;101645.28;842818;23;1402;-86
2022/08/11 02:50:34;;;;;;;5.22;4.03;;;;;;;18.21;48.69;101637.34;847035;23;1241;-86
2022/08/11 02:51:19;;;;;;;5.15;3.97;;;;;;;18.22;48.68;101649.69;847508;23;1308;-86
2022/08/11 02:52:14;;;;;;;4.40;3.70;;;;;;;18.21;48.82;101645.28;843504;23;1283;-86
2022/08/11 02:52:57;;;;;;;4.57;4.00;;;;;;;18.19;48.87;101645.25;851610;23;1207;-86
2022/08/11 02:53:29;;;;;;;4.50;3.90;;;;;;;18.22;48.79;101649.69;851328;23;1287;-85
2022/08/11 02:54:22;;;;;;;6.60;3.90;;;;;;;18.20;48.90;101651.44;847717;23;1211;-86
2022/08/11 02:55:07;;;;;;;14.57;4.33;;;;;;;18.24;48.77;101653.22;851737;23;1365;-86
2022/08/11 02:55:34;;;;;;;13.27;4.10;;;;;;;18.25;48.88;101646.19;847182;23;1299;-86
2022/08/11 02:56:12;;;;;;;10.75;4.20;;;;;;;18.24;48.88;101653.22;851513;23;1280;-86
2022/08/11 02:56:51;;;;;;;8.13;4.10;;;;;;;18.19;48.85;101641.75;852720;23;1535;-86
2022/08/11 02:57:26;;;;;;;9.45;3.80;;;;;;;18.23;48.88;101643.53;854555;23;1361;-85
2022/08/11 02:57:58;;;;;;;9.45;4.03;;;;;;;18.22;48.64;101642.63;847874;23;1395;-86
2022/08/11 02:59:48;;;;;;;9.80;3.90;;;;;;;18.26;48.68;101651.47;842362;23;1265;-86
2022/08/11 02:59:54;;;;;;;5.70;4.00;;;;;;;18.23;48.64;101651.44;851335;23;1469;-86
2022/08/11 03:00:16;;;;;;;6.00;3.60;;;;;;;18.28;48.50;101649.75;849784;23;1248;-86
2022/08/11 03:00:55;;;;;;;6.05;3.83;;;;;;;18.28;48.43;101649.75;847351;23;1289;-86
2022/08/11 03:01:27;;;;;;;5.95;4.13;;;;;;;18.23;48.27;101643.53;839105;23;1244;-86
2022/08/11 03:02:01;;;;;;;5.45;4.03;;;;;;;18.25;48.32;101647.06;839958;23;1374;-86
2022/08/11 03:02:30;;;;;;;5.13;4.18;;;;;;;18.32;48.25;101658.59;847842;23;1226;-86
2022/08/11 03:03:22;;;;;;;4.97;4.28;;;;;;;18.29;48.34;101648.88;843794;23;1282;-86
2022/08/11 03:03:53;;;;;;;4.70;4.20;;;;;;;18.32;48.36;101655.94;843510;23;1944;-86
2022/08/11 03:04:24;;;;;;;6.15;4.60;;;;;;;18.27;48.25;101655.91;842877;23;1262;-86
2022/08/11 03:05:00;;;;;;;5.75;4.30;;;;;;;18.25;48.47;101656.75;847251;23;1374;-86
2022/08/11 03:05:26;;;;;;;4.20;3.80;;;;;;;18.26;48.33;101656.75;843640;23;1314;-86
2022/08/11 03:06:17;;;;;;;4.75;3.90;;;;;;;18.25;48.60;101654.97;839679;23;1429;-86
2022/08/11 03:06:49;;;;;;;4.70;4.20;;;;;;;18.19;48.57;101650.53;847289;23;1251;-86
2022/08/11 03:07:22;;;;;;;4.20;3.80;;;;;;;18.23;48.43;101659.38;838444;23;1307;-86
2022/08/11 03:07:58;;;;;;;5.85;4.57;;;;;;;18.21;48.48;101655.84;835531;23;1165;-86
2022/08/11 03:08:50;;;;;;;7.45;4.68;;;;;;;18.18;48.41;101661.97;844562;23;1469;-86
2022/08/11 03:09:39;;;;;;;8.63;4.20;;;;;;;18.19;48.48;101662.88;846568;23;978;-86